sensor_id;sensor_type;location;lat;lon;timestamp;P1;durP1;ratioP1;P2;durP2;ratioP2
80253;SDS011;69563;37.974;23.708;2023-08-08T00:01:04;4.00;;;1.60;;
80253;SDS011;69563;37.974;23.708;2023-08-08T00:06:00;6.88;;;2.20;;
80253;SDS011;69563;37.974;23.708;2023-08-08T00:08:29;6.80;;;2.33;;
80253;SDS011;69563;37.974;23.708;2023-08-08T00:10:55;6.53;;;2.17;;
80253;SDS011;69563;37.974;23.708;2023-08-08T00:13:20;5.72;;;1.73;;
80253;SDS011;69563;37.974;23.708;2023-08-08T00:15:46;4.72;;;2.00;;
80253;SDS011;69563;37.974;23.708;2023-08-08T00:18:12;6.43;;;2.00;;
80253;SDS011;69563;37.974;23.708;2023-08-08T00:20:37;6.50;;;2.00;;
80253;SDS011;69563;37.974;23.708;2023-08-08T00:23:03;7.30;;;2.40;;
80253;SDS011;69563;37.974;23.708;2023-08-08T00:25:29;8.98;;;2.47;;
80253;SDS011;69563;37.974;23.708;2023-08-08T00:27:55;5.88;;;1.92;;
80253;SDS011;69563;37.974;23.708;2023-08-08T00:30:20;7.68;;;2.60;;
80253;SDS011;69563;37.974;23.708;2023-08-08T00:32:46;5.78;;;2.28;;
80253;SDS011;69563;37.974;23.708;2023-08-08T00:35:12;9.35;;;2.50;;
80253;SDS011;69563;37.974;23.708;2023-08-08T00:37:38;8.27;;;2.53;;
80253;SDS011;69563;37.974;23.708;2023-08-08T00:40:03;9.07;;;2.67;;
80253;SDS011;69563;37.974;23.708;2023-08-08T00:42:29;10.50;;;2.63;;
80253;SDS011;69563;37.974;23.708;2023-08-08T00:44:55;10.55;;;2.55;;
80253;SDS011;69563;37.974;23.708;2023-08-08T00:47:27;12.43;;;2.70;;
80253;SDS011;69563;37.974;23.708;2023-08-08T00:49:53;12.07;;;2.45;;
80253;SDS011;69563;37.974;23.708;2023-08-08T00:52:18;9.23;;;2.60;;
80253;SDS011;69563;37.974;23.708;2023-08-08T00:54:44;8.40;;;2.45;;
80253;SDS011;69563;37.974;23.708;2023-08-08T00:57:10;8.65;;;2.40;;
80253;SDS011;69563;37.974;23.708;2023-08-08T00:59:37;8.93;;;2.47;;
80253;SDS011;69563;37.974;23.708;2023-08-08T01:02:02;8.27;;;2.40;;
80253;SDS011;69563;37.974;23.708;2023-08-08T01:04:28;8.50;;;2.42;;
80253;SDS011;69563;37.974;23.708;2023-08-08T01:06:56;8.88;;;2.80;;
80253;SDS011;69563;37.974;23.708;2023-08-08T01:09:33;6.93;;;2.42;;
80253;SDS011;69563;37.974;23.708;2023-08-08T01:14:31;9.48;;;2.53;;
80253;SDS011;69563;37.974;23.708;2023-08-08T01:16:59;8.00;;;2.55;;
80253;SDS011;69563;37.974;23.708;2023-08-08T01:19:27;9.00;;;2.63;;
80253;SDS011;69563;37.974;23.708;2023-08-08T01:21:54;7.50;;;2.50;;
80253;SDS011;69563;37.974;23.708;2023-08-08T01:24:24;6.75;;;2.40;;
80253;SDS011;69563;37.974;23.708;2023-08-08T01:26:52;8.57;;;2.50;;
80253;SDS011;69563;37.974;23.708;2023-08-08T01:29:18;6.65;;;2.22;;
80253;SDS011;69563;37.974;23.708;2023-08-08T01:31:45;7.80;;;2.60;;
80253;SDS011;69563;37.974;23.708;2023-08-08T01:34:10;10.60;;;2.60;;
80253;SDS011;69563;37.974;23.708;2023-08-08T01:36:59;8.43;;;2.75;;
80253;SDS011;69563;37.974;23.708;2023-08-08T01:39:25;9.13;;;2.38;;
80253;SDS011;69563;37.974;23.708;2023-08-08T01:41:55;9.48;;;2.70;;
80253;SDS011;69563;37.974;23.708;2023-08-08T01:44:23;11.10;;;2.95;;
80253;SDS011;69563;37.974;23.708;2023-08-08T01:46:51;10.13;;;2.60;;
80253;SDS011;69563;37.974;23.708;2023-08-08T01:49:17;8.77;;;2.90;;
80253;SDS011;69563;37.974;23.708;2023-08-08T01:51:43;8.23;;;2.28;;
80253;SDS011;69563;37.974;23.708;2023-08-08T01:54:09;12.00;;;2.78;;
80253;SDS011;69563;37.974;23.708;2023-08-08T01:56:34;8.98;;;2.58;;
80253;SDS011;69563;37.974;23.708;2023-08-08T01:59:00;10.77;;;2.80;;
80253;SDS011;69563;37.974;23.708;2023-08-08T02:01:26;9.68;;;2.63;;
80253;SDS011;69563;37.974;23.708;2023-08-08T02:03:52;7.80;;;2.50;;
80253;SDS011;69563;37.974;23.708;2023-08-08T02:06:17;8.18;;;2.45;;
80253;SDS011;69563;37.974;23.708;2023-08-08T02:08:44;6.57;;;2.42;;
80253;SDS011;69563;37.974;23.708;2023-08-08T02:11:10;8.05;;;2.50;;
80253;SDS011;69563;37.974;23.708;2023-08-08T02:13:35;9.15;;;2.70;;
80253;SDS011;69563;37.974;23.708;2023-08-08T02:16:01;8.85;;;2.90;;
80253;SDS011;69563;37.974;23.708;2023-08-08T02:18:27;10.63;;;2.75;;
80253;SDS011;69563;37.974;23.708;2023-08-08T02:20:53;6.70;;;2.45;;
80253;SDS011;69563;37.974;23.708;2023-08-08T02:23:18;7.50;;;2.70;;
80253;SDS011;69563;37.974;23.708;2023-08-08T02:25:44;6.20;;;2.50;;
80253;SDS011;69563;37.974;23.708;2023-08-08T02:28:10;8.15;;;2.53;;
80253;SDS011;69563;37.974;23.708;2023-08-08T02:30:35;8.63;;;2.45;;
80253;SDS011;69563;37.974;23.708;2023-08-08T02:33:01;6.43;;;2.30;;
80253;SDS011;69563;37.974;23.708;2023-08-08T02:35:27;7.78;;;2.70;;
80253;SDS011;69563;37.974;23.708;2023-08-08T02:37:53;6.03;;;2.22;;
80253;SDS011;69563;37.974;23.708;2023-08-08T02:40:18;6.25;;;2.22;;
80253;SDS011;69563;37.974;23.708;2023-08-08T02:42:44;7.47;;;2.40;;
80253;SDS011;69563;37.974;23.708;2023-08-08T02:45:10;6.60;;;2.50;;
80253;SDS011;69563;37.974;23.708;2023-08-08T02:47:35;6.30;;;2.30;;
80253;SDS011;69563;37.974;23.708;2023-08-08T02:50:01;9.88;;;2.67;;
80253;SDS011;69563;37.974;23.708;2023-08-08T02:52:27;7.97;;;2.50;;
80253;SDS011;69563;37.974;23.708;2023-08-08T02:54:52;5.93;;;2.22;;
80253;SDS011;69563;37.974;23.708;2023-08-08T02:57:18;6.75;;;2.50;;
80253;SDS011;69563;37.974;23.708;2023-08-08T02:59:44;9.32;;;2.53;;
80253;SDS011;69563;37.974;23.708;2023-08-08T03:02:10;7.93;;;2.30;;
80253;SDS011;69563;37.974;23.708;2023-08-08T03:04:35;7.40;;;2.25;;
80253;SDS011;69563;37.974;23.708;2023-08-08T03:07:01;7.57;;;2.50;;
80253;SDS011;69563;37.974;23.708;2023-08-08T03:09:29;7.10;;;2.13;;
80253;SDS011;69563;37.974;23.708;2023-08-08T03:11:55;8.88;;;2.83;;
80253;SDS011;69563;37.974;23.708;2023-08-08T03:14:21;9.60;;;2.47;;
80253;SDS011;69563;37.974;23.708;2023-08-08T03:16:46;9.00;;;2.15;;
80253;SDS011;69563;37.974;23.708;2023-08-08T03:19:12;7.78;;;2.50;;
80253;SDS011;69563;37.974;23.708;2023-08-08T03:21:38;4.50;;;2.00;;
80253;SDS011;69563;37.974;23.708;2023-08-08T03:24:04;8.70;;;2.38;;
80253;SDS011;69563;37.974;23.708;2023-08-08T03:26:30;9.20;;;2.45;;
80253;SDS011;69563;37.974;23.708;2023-08-08T03:28:55;7.30;;;2.38;;
80253;SDS011;69563;37.974;23.708;2023-08-08T03:31:21;9.15;;;2.33;;
80253;SDS011;69563;37.974;23.708;2023-08-08T03:33:47;8.48;;;2.22;;
80253;SDS011;69563;37.974;23.708;2023-08-08T03:36:13;11.43;;;2.92;;
80253;SDS011;69563;37.974;23.708;2023-08-08T03:38:39;12.10;;;3.00;;
80253;SDS011;69563;37.974;23.708;2023-08-08T03:41:09;10.88;;;2.90;;
80253;SDS011;69563;37.974;23.708;2023-08-08T03:43:35;10.30;;;2.55;;
80253;SDS011;69563;37.974;23.708;2023-08-08T03:46:00;6.82;;;2.13;;
80253;SDS011;69563;37.974;23.708;2023-08-08T03:48:26;13.50;;;2.70;;
80253;SDS011;69563;37.974;23.708;2023-08-08T03:50:52;9.82;;;2.60;;
80253;SDS011;69563;37.974;23.708;2023-08-08T03:53:17;7.88;;;2.65;;
80253;SDS011;69563;37.974;23.708;2023-08-08T03:55:43;7.25;;;2.50;;
80253;SDS011;69563;37.974;23.708;2023-08-08T03:58:09;13.13;;;2.80;;
80253;SDS011;69563;37.974;23.708;2023-08-08T04:00:35;6.82;;;2.47;;
80253;SDS011;69563;37.974;23.708;2023-08-08T04:03:02;10.20;;;2.47;;
80253;SDS011;69563;37.974;23.708;2023-08-08T04:05:28;8.32;;;2.75;;
80253;SDS011;69563;37.974;23.708;2023-08-08T04:07:54;7.10;;;2.53;;
80253;SDS011;69563;37.974;23.708;2023-08-08T04:10:19;5.65;;;2.08;;
80253;SDS011;69563;37.974;23.708;2023-08-08T04:12:45;6.65;;;2.15;;
80253;SDS011;69563;37.974;23.708;2023-08-08T04:15:11;4.95;;;1.80;;
80253;SDS011;69563;37.974;23.708;2023-08-08T04:17:37;5.28;;;1.90;;
80253;SDS011;69563;37.974;23.708;2023-08-08T04:20:02;4.90;;;1.60;;
80253;SDS011;69563;37.974;23.708;2023-08-08T04:22:30;4.00;;;1.60;;
80253;SDS011;69563;37.974;23.708;2023-08-08T04:24:56;4.25;;;1.48;;
80253;SDS011;69563;37.974;23.708;2023-08-08T04:27:22;4.32;;;1.38;;
80253;SDS011;69563;37.974;23.708;2023-08-08T04:29:48;3.60;;;1.40;;
80253;SDS011;69563;37.974;23.708;2023-08-08T04:32:13;2.63;;;1.30;;
80253;SDS011;69563;37.974;23.708;2023-08-08T04:34:39;2.85;;;1.20;;
80253;SDS011;69563;37.974;23.708;2023-08-08T04:37:05;3.67;;;1.20;;
80253;SDS011;69563;37.974;23.708;2023-08-08T04:39:30;4.32;;;1.30;;
80253;SDS011;69563;37.974;23.708;2023-08-08T04:41:56;4.30;;;1.20;;
80253;SDS011;69563;37.974;23.708;2023-08-08T04:44:22;3.22;;;1.20;;
80253;SDS011;69563;37.974;23.708;2023-08-08T04:46:48;2.80;;;1.33;;
80253;SDS011;69563;37.974;23.708;2023-08-08T04:49:13;4.75;;;1.40;;
80253;SDS011;69563;37.974;23.708;2023-08-08T04:51:39;3.05;;;1.25;;
80253;SDS011;69563;37.974;23.708;2023-08-08T04:54:05;4.35;;;1.20;;
80253;SDS011;69563;37.974;23.708;2023-08-08T04:56:31;3.63;;;1.30;;
80253;SDS011;69563;37.974;23.708;2023-08-08T04:58:56;2.97;;;1.00;;
80253;SDS011;69563;37.974;23.708;2023-08-08T05:01:22;2.70;;;0.98;;
80253;SDS011;69563;37.974;23.708;2023-08-08T05:03:48;2.33;;;1.00;;
80253;SDS011;69563;37.974;23.708;2023-08-08T05:06:14;1.92;;;0.90;;
80253;SDS011;69563;37.974;23.708;2023-08-08T05:08:41;2.35;;;1.00;;
80253;SDS011;69563;37.974;23.708;2023-08-08T05:11:07;4.60;;;1.00;;
80253;SDS011;69563;37.974;23.708;2023-08-08T05:13:33;2.40;;;0.90;;
80253;SDS011;69563;37.974;23.708;2023-08-08T05:15:58;2.65;;;1.23;;
80253;SDS011;69563;37.974;23.708;2023-08-08T05:21:57;3.15;;;1.10;;
80253;SDS011;69563;37.974;23.708;2023-08-08T05:24:23;3.15;;;1.45;;
80253;SDS011;69563;37.974;23.708;2023-08-08T05:26:48;3.45;;;1.17;;
80253;SDS011;69563;37.974;23.708;2023-08-08T05:29:14;3.97;;;1.35;;
80253;SDS011;69563;37.974;23.708;2023-08-08T05:31:40;4.65;;;1.30;;
80253;SDS011;69563;37.974;23.708;2023-08-08T05:34:05;3.70;;;1.20;;
80253;SDS011;69563;37.974;23.708;2023-08-08T05:36:31;4.15;;;1.30;;
80253;SDS011;69563;37.974;23.708;2023-08-08T05:38:57;4.00;;;1.38;;
80253;SDS011;69563;37.974;23.708;2023-08-08T05:41:22;3.08;;;1.42;;
80253;SDS011;69563;37.974;23.708;2023-08-08T05:43:48;5.15;;;1.40;;
80253;SDS011;69563;37.974;23.708;2023-08-08T05:46:14;2.97;;;1.10;;
80253;SDS011;69563;37.974;23.708;2023-08-08T05:48:39;3.80;;;1.40;;
80253;SDS011;69563;37.974;23.708;2023-08-08T05:51:05;2.92;;;1.30;;
80253;SDS011;69563;37.974;23.708;2023-08-08T05:53:31;4.13;;;1.30;;
80253;SDS011;69563;37.974;23.708;2023-08-08T05:55:57;2.83;;;1.10;;
80253;SDS011;69563;37.974;23.708;2023-08-08T05:58:23;4.28;;;1.20;;
80253;SDS011;69563;37.974;23.708;2023-08-08T06:00:49;3.42;;;1.15;;
80253;SDS011;69563;37.974;23.708;2023-08-08T06:03:15;3.83;;;1.20;;
80253;SDS011;69563;37.974;23.708;2023-08-08T06:05:41;2.20;;;1.20;;
80253;SDS011;69563;37.974;23.708;2023-08-08T06:08:06;2.33;;;1.00;;
80253;SDS011;69563;37.974;23.708;2023-08-08T06:10:36;5.45;;;1.30;;
80253;SDS011;69563;37.974;23.708;2023-08-08T06:13:02;3.35;;;1.30;;
80253;SDS011;69563;37.974;23.708;2023-08-08T06:15:28;4.50;;;1.30;;
80253;SDS011;69563;37.974;23.708;2023-08-08T06:17:53;4.10;;;1.35;;
80253;SDS011;69563;37.974;23.708;2023-08-08T06:20:19;3.33;;;1.30;;
80253;SDS011;69563;37.974;23.708;2023-08-08T06:22:45;3.30;;;1.73;;
80253;SDS011;69563;37.974;23.708;2023-08-08T06:25:11;4.13;;;1.38;;
80253;SDS011;69563;37.974;23.708;2023-08-08T06:27:37;4.32;;;1.40;;
80253;SDS011;69563;37.974;23.708;2023-08-08T06:30:02;4.80;;;1.65;;
80253;SDS011;69563;37.974;23.708;2023-08-08T06:32:28;6.03;;;1.42;;
80253;SDS011;69563;37.974;23.708;2023-08-08T06:34:54;5.13;;;1.67;;
80253;SDS011;69563;37.974;23.708;2023-08-08T06:37:20;2.90;;;1.10;;
80253;SDS011;69563;37.974;23.708;2023-08-08T06:39:46;3.45;;;1.23;;
80253;SDS011;69563;37.974;23.708;2023-08-08T06:42:11;4.07;;;1.45;;
80253;SDS011;69563;37.974;23.708;2023-08-08T06:44:41;4.10;;;1.13;;
80253;SDS011;69563;37.974;23.708;2023-08-08T06:47:08;2.85;;;1.42;;
80253;SDS011;69563;37.974;23.708;2023-08-08T06:49:33;3.17;;;1.50;;
80253;SDS011;69563;37.974;23.708;2023-08-08T06:51:59;3.03;;;1.13;;
80253;SDS011;69563;37.974;23.708;2023-08-08T06:54:25;3.22;;;1.23;;
80253;SDS011;69563;37.974;23.708;2023-08-08T06:56:53;3.70;;;1.38;;
80253;SDS011;69563;37.974;23.708;2023-08-08T06:59:21;5.47;;;1.38;;
80253;SDS011;69563;37.974;23.708;2023-08-08T07:01:47;5.78;;;1.35;;
80253;SDS011;69563;37.974;23.708;2023-08-08T07:04:14;3.17;;;1.20;;
80253;SDS011;69563;37.974;23.708;2023-08-08T07:06:40;3.00;;;1.33;;
80253;SDS011;69563;37.974;23.708;2023-08-08T07:09:07;6.65;;;1.27;;
80253;SDS011;69563;37.974;23.708;2023-08-08T07:11:35;2.50;;;1.20;;
80253;SDS011;69563;37.974;23.708;2023-08-08T07:14:04;2.58;;;1.38;;
80253;SDS011;69563;37.974;23.708;2023-08-08T07:16:30;4.43;;;1.42;;
80253;SDS011;69563;37.974;23.708;2023-08-08T07:18:55;1.85;;;1.10;;
80253;SDS011;69563;37.974;23.708;2023-08-08T07:21:21;2.53;;;1.20;;
80253;SDS011;69563;37.974;23.708;2023-08-08T07:23:47;3.47;;;1.10;;
80253;SDS011;69563;37.974;23.708;2023-08-08T07:26:12;3.88;;;1.30;;
80253;SDS011;69563;37.974;23.708;2023-08-08T07:28:38;2.05;;;1.20;;
80253;SDS011;69563;37.974;23.708;2023-08-08T07:31:04;1.95;;;1.00;;
80253;SDS011;69563;37.974;23.708;2023-08-08T07:33:30;2.83;;;1.10;;
80253;SDS011;69563;37.974;23.708;2023-08-08T07:35:56;3.05;;;1.50;;
80253;SDS011;69563;37.974;23.708;2023-08-08T07:38:21;2.53;;;1.60;;
80253;SDS011;69563;37.974;23.708;2023-08-08T07:40:47;4.78;;;1.80;;
80253;SDS011;69563;37.974;23.708;2023-08-08T07:43:13;3.13;;;1.58;;
80253;SDS011;69563;37.974;23.708;2023-08-08T07:45:39;5.18;;;1.90;;
80253;SDS011;69563;37.974;23.708;2023-08-08T07:48:05;4.13;;;1.80;;
80253;SDS011;69563;37.974;23.708;2023-08-08T07:50:31;2.83;;;1.38;;
80253;SDS011;69563;37.974;23.708;2023-08-08T07:52:57;3.35;;;1.60;;
80253;SDS011;69563;37.974;23.708;2023-08-08T07:55:22;2.63;;;1.48;;
80253;SDS011;69563;37.974;23.708;2023-08-08T07:57:48;5.13;;;1.75;;
80253;SDS011;69563;37.974;23.708;2023-08-08T08:00:14;3.30;;;1.73;;
80253;SDS011;69563;37.974;23.708;2023-08-08T08:02:43;4.00;;;1.70;;
80253;SDS011;69563;37.974;23.708;2023-08-08T08:05:10;2.78;;;1.50;;
80253;SDS011;69563;37.974;23.708;2023-08-08T08:07:37;2.50;;;1.35;;
80253;SDS011;69563;37.974;23.708;2023-08-08T08:10:03;4.72;;;1.50;;
80253;SDS011;69563;37.974;23.708;2023-08-08T08:12:31;3.20;;;1.30;;
80253;SDS011;69563;37.974;23.708;2023-08-08T08:14:57;3.13;;;1.40;;
80253;SDS011;69563;37.974;23.708;2023-08-08T08:17:23;2.05;;;1.10;;
80253;SDS011;69563;37.974;23.708;2023-08-08T08:19:49;3.72;;;1.30;;
80253;SDS011;69563;37.974;23.708;2023-08-08T08:22:16;2.58;;;1.20;;
80253;SDS011;69563;37.974;23.708;2023-08-08T08:24:42;3.75;;;1.30;;
80253;SDS011;69563;37.974;23.708;2023-08-08T08:27:07;2.97;;;1.23;;
80253;SDS011;69563;37.974;23.708;2023-08-08T08:29:33;3.13;;;1.25;;
80253;SDS011;69563;37.974;23.708;2023-08-08T08:31:59;3.30;;;1.15;;
80253;SDS011;69563;37.974;23.708;2023-08-08T08:34:25;3.63;;;1.30;;
80253;SDS011;69563;37.974;23.708;2023-08-08T08:36:50;2.58;;;1.13;;
80253;SDS011;69563;37.974;23.708;2023-08-08T08:39:16;5.80;;;1.70;;
80253;SDS011;69563;37.974;23.708;2023-08-08T08:41:41;5.45;;;2.45;;
80253;SDS011;69563;37.974;23.708;2023-08-08T08:44:14;3.70;;;1.63;;
80253;SDS011;69563;37.974;23.708;2023-08-08T08:46:41;6.68;;;4.05;;
80253;SDS011;69563;37.974;23.708;2023-08-08T08:49:08;6.18;;;1.80;;
80253;SDS011;69563;37.974;23.708;2023-08-08T08:51:36;4.00;;;1.70;;
80253;SDS011;69563;37.974;23.708;2023-08-08T08:54:02;5.85;;;3.35;;
80253;SDS011;69563;37.974;23.708;2023-08-08T08:56:28;5.55;;;2.05;;
80253;SDS011;69563;37.974;23.708;2023-08-08T08:58:54;5.95;;;3.25;;
80253;SDS011;69563;37.974;23.708;2023-08-08T09:01:19;4.82;;;1.75;;
80253;SDS011;69563;37.974;23.708;2023-08-08T09:03:47;6.13;;;2.00;;
80253;SDS011;69563;37.974;23.708;2023-08-08T09:06:13;4.63;;;1.70;;
80253;SDS011;69563;37.974;23.708;2023-08-08T09:08:41;5.65;;;1.83;;
80253;SDS011;69563;37.974;23.708;2023-08-08T09:11:06;6.03;;;2.13;;
80253;SDS011;69563;37.974;23.708;2023-08-08T09:13:36;7.40;;;1.90;;
80253;SDS011;69563;37.974;23.708;2023-08-08T09:16:04;5.47;;;1.92;;
80253;SDS011;69563;37.974;23.708;2023-08-08T09:18:33;5.78;;;1.80;;
80253;SDS011;69563;37.974;23.708;2023-08-08T09:21:03;6.57;;;1.83;;
80253;SDS011;69563;37.974;23.708;2023-08-08T09:23:32;4.85;;;1.77;;
80253;SDS011;69563;37.974;23.708;2023-08-08T09:25:57;5.32;;;2.03;;
80253;SDS011;69563;37.974;23.708;2023-08-08T09:28:23;3.03;;;1.75;;
80253;SDS011;69563;37.974;23.708;2023-08-08T09:30:50;5.60;;;2.00;;
80253;SDS011;69563;37.974;23.708;2023-08-08T09:33:17;5.13;;;1.60;;
80253;SDS011;69563;37.974;23.708;2023-08-08T09:35:43;4.25;;;1.65;;
80253;SDS011;69563;37.974;23.708;2023-08-08T09:38:10;4.05;;;1.70;;
80253;SDS011;69563;37.974;23.708;2023-08-08T09:40:35;4.22;;;1.75;;
80253;SDS011;69563;37.974;23.708;2023-08-08T09:43:01;5.47;;;1.45;;
80253;SDS011;69563;37.974;23.708;2023-08-08T09:45:35;5.57;;;1.60;;
80253;SDS011;69563;37.974;23.708;2023-08-08T09:48:04;4.88;;;1.63;;
80253;SDS011;69563;37.974;23.708;2023-08-08T09:50:32;4.07;;;1.90;;
80253;SDS011;69563;37.974;23.708;2023-08-08T09:52:59;4.90;;;1.60;;
80253;SDS011;69563;37.974;23.708;2023-08-08T09:55:29;3.95;;;1.75;;
80253;SDS011;69563;37.974;23.708;2023-08-08T09:57:57;4.93;;;1.50;;
80253;SDS011;69563;37.974;23.708;2023-08-08T10:00:23;4.38;;;1.52;;
80253;SDS011;69563;37.974;23.708;2023-08-08T10:02:52;3.42;;;1.42;;
80253;SDS011;69563;37.974;23.708;2023-08-08T10:05:19;4.57;;;1.48;;
80253;SDS011;69563;37.974;23.708;2023-08-08T10:07:46;4.60;;;1.38;;
80253;SDS011;69563;37.974;23.708;2023-08-08T10:10:12;4.18;;;1.70;;
80253;SDS011;69563;37.974;23.708;2023-08-08T10:12:38;4.55;;;2.13;;
80253;SDS011;69563;37.974;23.708;2023-08-08T10:15:08;7.45;;;2.30;;
80253;SDS011;69563;37.974;23.708;2023-08-08T10:17:40;9.35;;;5.78;;
80253;SDS011;69563;37.974;23.708;2023-08-08T10:20:08;5.38;;;3.08;;
80253;SDS011;69563;37.974;23.708;2023-08-08T10:22:42;3.88;;;1.85;;
80253;SDS011;69563;37.974;23.708;2023-08-08T10:25:18;7.63;;;2.55;;
80253;SDS011;69563;37.974;23.708;2023-08-08T10:28:11;7.10;;;3.15;;
80253;SDS011;69563;37.974;23.708;2023-08-08T10:30:45;6.90;;;2.90;;
80253;SDS011;69563;37.974;23.708;2023-08-08T10:33:18;5.82;;;2.17;;
80253;SDS011;69563;37.974;23.708;2023-08-08T10:35:56;5.90;;;2.20;;
80253;SDS011;69563;37.974;23.708;2023-08-08T10:41:26;9.02;;;3.40;;
80253;SDS011;69563;37.974;23.708;2023-08-08T10:46:26;8.18;;;3.30;;
80253;SDS011;69563;37.974;23.708;2023-08-08T10:48:54;6.47;;;3.10;;
80253;SDS011;69563;37.974;23.708;2023-08-08T10:51:23;6.03;;;2.95;;
80253;SDS011;69563;37.974;23.708;2023-08-08T10:54:26;4.57;;;2.88;;
80253;SDS011;69563;37.974;23.708;2023-08-08T10:56:54;5.88;;;2.67;;
80253;SDS011;69563;37.974;23.708;2023-08-08T10:59:27;4.25;;;2.53;;
80253;SDS011;69563;37.974;23.708;2023-08-08T11:02:01;4.03;;;2.40;;
80253;SDS011;69563;37.974;23.708;2023-08-08T11:04:28;4.45;;;2.65;;
80253;SDS011;69563;37.974;23.708;2023-08-08T11:06:55;4.70;;;2.60;;
80253;SDS011;69563;37.974;23.708;2023-08-08T11:09:21;3.40;;;2.20;;
80253;SDS011;69563;37.974;23.708;2023-08-08T11:11:48;7.13;;;2.53;;
80253;SDS011;69563;37.974;23.708;2023-08-08T11:16:40;3.72;;;2.10;;
80253;SDS011;69563;37.974;23.708;2023-08-08T11:19:06;3.92;;;2.30;;
80253;SDS011;69563;37.974;23.708;2023-08-08T11:21:33;2.97;;;1.88;;
80253;SDS011;69563;37.974;23.708;2023-08-08T11:24:04;3.95;;;2.00;;
80253;SDS011;69563;37.974;23.708;2023-08-08T11:26:31;2.80;;;1.85;;
80253;SDS011;69563;37.974;23.708;2023-08-08T11:29:01;2.60;;;1.60;;
80253;SDS011;69563;37.974;23.708;2023-08-08T11:31:31;2.92;;;1.75;;
80253;SDS011;69563;37.974;23.708;2023-08-08T11:33:58;2.80;;;1.55;;
80253;SDS011;69563;37.974;23.708;2023-08-08T11:36:24;2.60;;;1.60;;
80253;SDS011;69563;37.974;23.708;2023-08-08T11:39:01;2.65;;;1.45;;
80253;SDS011;69563;37.974;23.708;2023-08-08T11:41:33;4.15;;;1.55;;
80253;SDS011;69563;37.974;23.708;2023-08-08T11:44:01;2.42;;;1.50;;
80253;SDS011;69563;37.974;23.708;2023-08-08T11:46:28;2.25;;;1.38;;
80253;SDS011;69563;37.974;23.708;2023-08-08T11:49:01;2.67;;;1.60;;
80253;SDS011;69563;37.974;23.708;2023-08-08T11:51:31;2.55;;;1.42;;
80253;SDS011;69563;37.974;23.708;2023-08-08T11:53:59;2.65;;;1.27;;
80253;SDS011;69563;37.974;23.708;2023-08-08T11:56:27;2.60;;;1.30;;
80253;SDS011;69563;37.974;23.708;2023-08-08T11:58:54;1.75;;;1.15;;
80253;SDS011;69563;37.974;23.708;2023-08-08T12:01:21;2.40;;;1.10;;
80253;SDS011;69563;37.974;23.708;2023-08-08T12:03:48;1.77;;;1.02;;
80253;SDS011;69563;37.974;23.708;2023-08-08T12:06:14;1.77;;;1.10;;
80253;SDS011;69563;37.974;23.708;2023-08-08T12:08:41;2.92;;;1.20;;
80253;SDS011;69563;37.974;23.708;2023-08-08T12:11:08;1.65;;;1.10;;
80253;SDS011;69563;37.974;23.708;2023-08-08T12:13:36;1.73;;;1.00;;
80253;SDS011;69563;37.974;23.708;2023-08-08T12:16:04;2.42;;;1.08;;
80253;SDS011;69563;37.974;23.708;2023-08-08T12:18:31;1.63;;;1.08;;
80253;SDS011;69563;37.974;23.708;2023-08-08T12:20:57;2.88;;;1.20;;
80253;SDS011;69563;37.974;23.708;2023-08-08T12:23:25;1.60;;;1.00;;
80253;SDS011;69563;37.974;23.708;2023-08-08T12:25:52;1.58;;;1.00;;
80253;SDS011;69563;37.974;23.708;2023-08-08T12:28:18;1.65;;;1.15;;
80253;SDS011;69563;37.974;23.708;2023-08-08T12:30:44;2.53;;;1.00;;
80253;SDS011;69563;37.974;23.708;2023-08-08T12:33:10;1.10;;;0.90;;
80253;SDS011;69563;37.974;23.708;2023-08-08T12:35:36;1.60;;;0.98;;
80253;SDS011;69563;37.974;23.708;2023-08-08T12:38:02;1.48;;;0.85;;
80253;SDS011;69563;37.974;23.708;2023-08-08T12:40:28;1.30;;;0.88;;
80253;SDS011;69563;37.974;23.708;2023-08-08T12:42:54;1.10;;;0.80;;
80253;SDS011;69563;37.974;23.708;2023-08-08T12:45:20;2.55;;;0.93;;
80253;SDS011;69563;37.974;23.708;2023-08-08T12:47:47;1.33;;;1.00;;
80253;SDS011;69563;37.974;23.708;2023-08-08T12:50:13;1.58;;;1.00;;
80253;SDS011;69563;37.974;23.708;2023-08-08T12:52:39;1.20;;;0.90;;
80253;SDS011;69563;37.974;23.708;2023-08-08T12:55:05;1.60;;;1.10;;
80253;SDS011;69563;37.974;23.708;2023-08-08T12:57:32;1.27;;;0.82;;
80253;SDS011;69563;37.974;23.708;2023-08-08T12:59:58;1.58;;;0.90;;
80253;SDS011;69563;37.974;23.708;2023-08-08T13:02:24;1.77;;;0.85;;
80253;SDS011;69563;37.974;23.708;2023-08-08T13:04:50;1.70;;;0.90;;
80253;SDS011;69563;37.974;23.708;2023-08-08T13:07:15;1.23;;;0.90;;
80253;SDS011;69563;37.974;23.708;2023-08-08T13:09:41;2.08;;;0.90;;
80253;SDS011;69563;37.974;23.708;2023-08-08T13:12:07;1.48;;;0.90;;
80253;SDS011;69563;37.974;23.708;2023-08-08T13:14:33;1.40;;;0.90;;
80253;SDS011;69563;37.974;23.708;2023-08-08T13:16:58;4.88;;;3.35;;
80253;SDS011;69563;37.974;23.708;2023-08-08T13:19:25;7.65;;;5.63;;
80253;SDS011;69563;37.974;23.708;2023-08-08T13:21:53;8.70;;;7.10;;
80253;SDS011;69563;37.974;23.708;2023-08-08T13:24:19;7.63;;;6.15;;
80253;SDS011;69563;37.974;23.708;2023-08-08T13:26:48;8.13;;;6.70;;
80253;SDS011;69563;37.974;23.708;2023-08-08T13:29:14;5.18;;;3.95;;
80253;SDS011;69563;37.974;23.708;2023-08-08T13:31:40;8.52;;;5.88;;
80253;SDS011;69563;37.974;23.708;2023-08-08T13:34:06;6.43;;;4.30;;
80253;SDS011;69563;37.974;23.708;2023-08-08T13:36:32;5.75;;;4.25;;
80253;SDS011;69563;37.974;23.708;2023-08-08T13:38:57;5.63;;;4.25;;
80253;SDS011;69563;37.974;23.708;2023-08-08T13:41:23;5.82;;;4.75;;
80253;SDS011;69563;37.974;23.708;2023-08-08T13:43:49;6.13;;;4.65;;
80253;SDS011;69563;37.974;23.708;2023-08-08T13:46:15;7.40;;;5.13;;
80253;SDS011;69563;37.974;23.708;2023-08-08T13:48:41;6.28;;;4.50;;
80253;SDS011;69563;37.974;23.708;2023-08-08T13:51:07;6.03;;;4.53;;
80253;SDS011;69563;37.974;23.708;2023-08-08T13:53:32;6.82;;;4.57;;
80253;SDS011;69563;37.974;23.708;2023-08-08T13:55:59;5.57;;;4.03;;
80253;SDS011;69563;37.974;23.708;2023-08-08T13:58:24;6.03;;;4.60;;
80253;SDS011;69563;37.974;23.708;2023-08-08T14:00:50;7.07;;;4.53;;
80253;SDS011;69563;37.974;23.708;2023-08-08T14:03:16;6.22;;;4.50;;
80253;SDS011;69563;37.974;23.708;2023-08-08T14:05:42;6.18;;;4.18;;
80253;SDS011;69563;37.974;23.708;2023-08-08T14:08:09;8.35;;;4.45;;
80253;SDS011;69563;37.974;23.708;2023-08-08T14:10:35;5.28;;;3.72;;
80253;SDS011;69563;37.974;23.708;2023-08-08T14:13:01;6.50;;;4.03;;
80253;SDS011;69563;37.974;23.708;2023-08-08T14:15:27;5.95;;;3.70;;
80253;SDS011;69563;37.974;23.708;2023-08-08T14:17:54;4.57;;;3.05;;
80253;SDS011;69563;37.974;23.708;2023-08-08T14:20:20;4.60;;;3.22;;
80253;SDS011;69563;37.974;23.708;2023-08-08T14:22:46;4.38;;;3.10;;
80253;SDS011;69563;37.974;23.708;2023-08-08T14:25:12;5.50;;;3.30;;
80253;SDS011;69563;37.974;23.708;2023-08-08T14:27:38;4.82;;;2.83;;
80253;SDS011;69563;37.974;23.708;2023-08-08T14:30:04;4.65;;;2.67;;
80253;SDS011;69563;37.974;23.708;2023-08-08T14:32:30;4.00;;;2.63;;
80253;SDS011;69563;37.974;23.708;2023-08-08T14:34:56;5.00;;;2.40;;
80253;SDS011;69563;37.974;23.708;2023-08-08T14:37:22;4.57;;;2.80;;
80253;SDS011;69563;37.974;23.708;2023-08-08T14:39:47;3.53;;;2.28;;
80253;SDS011;69563;37.974;23.708;2023-08-08T14:42:13;3.83;;;2.35;;
80253;SDS011;69563;37.974;23.708;2023-08-08T14:44:39;3.67;;;2.35;;
80253;SDS011;69563;37.974;23.708;2023-08-08T14:47:05;3.95;;;2.25;;